Time;durP1;ratioP1;P1;durP2;ratioP2;P2;SDS_P1;SDS_P2;PMS_P1;PMS_P2;Temp;Humidity;BMP_temperature;BMP_pressure;BME280_temperature;BME280_humidity;BME280_pressure;Samples;Min_cycle;Max_cycle;Signal;HPM_P1;HPM_P2
2023/05/02 00:00:54;;;;;;;7.15;4.30;;;;;;;11.78;83.67;100885.81;4909105;29;20076;-85
2023/05/02 00:03:46;;;;;;;6.45;3.65;;;;;;;11.72;84.03;100890.22;4928304;29;20044;-85
2023/05/02 00:06:26;;;;;;;3.63;2.95;;;;;;;11.67;84.38;100881.53;4909361;29;20048;-85
2023/05/02 00:09:11;;;;;;;3.92;3.60;;;;;;;11.69;84.25;100879.78;4924072;29;20079;-85
2023/05/02 00:11:55;;;;;;;5.90;3.53;;;;;;;11.67;85.23;100883.31;4915843;29;20040;-85
2023/05/02 00:14:26;;;;;;;10.60;4.03;;;;;;;11.61;85.59;100886.84;4920922;29;20057;-85
2023/05/02 00:16:53;;;;;;;6.90;4.00;;;;;;;11.57;86.01;100886.00;4924759;29;20063;-84
2023/05/02 00:19:25;;;;;;;4.72;3.72;;;;;;;11.56;86.53;100888.63;4911305;29;20151;-87
2023/05/02 00:21:52;;;;;;;5.90;4.45;;;;;;;11.55;86.75;100892.13;4921971;29;20055;-85
2023/05/02 00:24:19;;;;;;;4.25;3.85;;;;;;;11.56;87.17;100884.28;4904348;29;20048;-85
2023/05/02 00:26:47;;;;;;;3.75;3.20;;;;;;;11.54;86.77;100883.41;4921318;29;20103;-84
2023/05/02 00:29:14;;;;;;;8.02;3.50;;;;;;;11.55;87.23;100882.53;4900117;29;20047;-84
2023/05/02 00:31:41;;;;;;;4.90;2.97;;;;;;;11.51;87.06;100878.22;4922098;29;20074;-84
2023/05/02 00:34:08;;;;;;;6.35;3.60;;;;;;;11.54;87.38;100895.66;4936852;29;20044;-84
2023/05/02 00:36:38;;;;;;;5.18;3.65;;;;;;;11.52;87.41;100885.16;4918578;29;20111;-84
2023/05/02 00:39:04;;;;;;;5.22;3.78;;;;;;;11.50;87.17;100892.19;4917693;29;20055;-85
2023/05/02 00:41:31;;;;;;;5.07;3.97;;;;;;;11.46;87.19;100897.47;4901887;29;20062;-85
2023/05/02 00:43:58;;;;;;;3.53;3.22;;;;;;;11.45;87.46;100898.38;4916948;29;20064;-85
2023/05/02 00:46:28;;;;;;;4.25;3.38;;;;;;;11.47;86.79;100901.81;4920241;29;20044;-85
2023/05/02 00:48:58;;;;;;;8.48;3.72;;;;;;;11.46;87.19;100906.22;4920378;29;20147;-85
2023/05/02 00:51:26;;;;;;;7.75;3.35;;;;;;;11.41;87.09;100905.38;4916824;29;20076;-84
2023/05/02 00:53:59;;;;;;;9.63;3.80;;;;;;;11.39;87.85;100899.28;4901780;29;20093;-85
2023/05/02 00:56:26;;;;;;;5.25;3.67;;;;;;;11.37;87.41;100896.66;4921306;29;20055;-85
2023/05/02 00:58:53;;;;;;;3.97;3.58;;;;;;;11.37;87.37;100896.66;4925912;29;20048;-85
2023/05/02 01:01:44;;;;;;;6.95;3.45;;;;;;;11.38;87.61;100894.91;4902118;29;20441;-85
2023/05/02 01:04:44;;;;;;;4.63;3.80;;;;;;;11.38;86.81;100897.53;4899682;29;20052;-84
2023/05/02 01:07:41;;;;;;;6.50;4.18;;;;;;;11.35;87.17;100901.03;4909746;29;20052;-84
2023/05/02 01:10:38;;;;;;;5.53;3.00;;;;;;;11.34;86.96;100903.69;4928006;29;20044;-84
2023/05/02 01:13:17;;;;;;;5.40;3.72;;;;;;;11.33;86.87;100904.56;4912944;29;20063;-84
2023/05/02 01:15:45;;;;;;;5.70;4.22;;;;;;;11.30;86.94;100902.81;4914038;29;20506;-86
2023/05/02 01:18:17;;;;;;;9.85;4.32;;;;;;;11.27;87.15;100904.63;4914925;29;20599;-86
2023/05/02 01:20:46;;;;;;;5.18;4.10;;;;;;;11.28;87.44;100903.72;4911362;29;20064;-86
2023/05/02 01:23:54;;;;;;;9.60;3.90;;;;;;;11.29;87.29;100910.69;4907964;29;20047;-86
2023/05/02 01:26:36;;;;;;;4.65;3.85;;;;;;;11.31;87.02;100916.81;4905772;29;20567;-86
2023/05/02 01:29:09;;;;;;;5.53;4.68;;;;;;;11.33;86.03;100913.31;4914746;29;20693;-86
2023/05/02 01:31:41;;;;;;;5.25;4.60;;;;;;;11.35;85.98;100916.75;4925046;29;20455;-85
2023/05/02 01:34:10;;;;;;;5.93;4.45;;;;;;;11.41;85.53;100915.88;4896260;29;20055;-87
2023/05/02 01:36:43;;;;;;;9.45;4.95;;;;;;;11.43;84.95;100916.69;4913594;29;20036;-85
2023/05/02 01:39:14;;;;;;;5.93;5.33;;;;;;;11.44;84.64;100920.22;4912915;29;20036;-86
2023/05/02 01:41:42;;;;;;;8.15;6.47;;;;;;;11.47;84.03;100925.41;4916221;29;20139;-85
2023/05/02 01:44:11;;;;;;;8.73;6.65;;;;;;;11.47;83.78;100922.78;4909218;29;20063;-85
2023/05/02 01:46:43;;;;;;;9.77;6.07;;;;;;;11.47;83.88;100931.56;4898167;29;20051;-85
2023/05/02 01:49:14;;;;;;;9.55;7.05;;;;;;;11.50;83.86;100930.63;4913531;29;20163;-85
2023/05/02 01:51:51;;;;;;;13.60;9.20;;;;;;;11.47;83.76;100933.28;4933108;29;20044;-85
2023/05/02 01:54:21;;;;;;;12.63;8.48;;;;;;;11.46;84.30;100932.44;4912193;29;20064;-85
2023/05/02 01:56:49;;;;;;;13.23;8.43;;;;;;;11.48;84.46;100945.50;4899909;29;20048;-85
2023/05/02 01:59:20;;;;;;;15.32;9.73;;;;;;;11.47;84.26;100946.38;4928276;29;20044;-86
2023/05/02 02:01:48;;;;;;;15.18;9.32;;;;;;;11.44;84.67;100949.06;4911167;29;20051;-86
2023/05/02 02:04:16;;;;;;;15.50;8.80;;;;;;;11.40;85.16;100946.44;4894955;29;20051;-86
2023/05/02 02:06:50;;;;;;;13.60;9.23;;;;;;;11.40;84.98;100946.44;4912734;29;20048;-85
2023/05/02 02:09:16;;;;;;;;;;;;;;;11.40;85.56;100948.19;4896026;29;20324;-86
2023/05/02 02:11:51;;;;;;;14.18;8.82;;;;;;;11.37;85.28;100951.72;4917900;29;19923;-86
2023/05/02 02:14:22;;;;;;;17.67;9.70;;;;;;;11.33;85.91;100957.84;4898068;29;20051;-85
2023/05/02 02:16:54;;;;;;;16.10;11.18;;;;;;;11.25;86.66;100957.03;4901099;29;20435;-85
2023/05/02 02:19:22;;;;;;;16.83;10.90;;;;;;;11.15;87.18;100955.38;4919910;29;20047;-85
2023/05/02 02:21:55;;;;;;;17.90;10.65;;;;;;;11.14;87.50;100962.34;4930247;29;20342;-86
2023/05/02 02:24:24;;;;;;;15.83;11.10;;;;;;;11.16;87.35;100960.59;4912482;29;20052;-83
2023/05/02 02:26:53;;;;;;;15.75;11.20;;;;;;;11.18;87.46;100961.44;4914335;29;20306;-85
2023/05/02 02:29:21;;;;;;;17.35;10.73;;;;;;;11.18;87.92;100965.81;4899409;29;20049;-85
2023/05/02 02:31:48;;;;;;;19.30;12.52;;;;;;;11.16;88.45;100965.84;4895330;29;20091;-86
2023/05/02 02:34:15;;;;;;;17.67;12.50;;;;;;;11.11;89.10;100962.38;4910051;29;20522;-85
2023/05/02 02:36:59;;;;;;;16.98;11.70;;;;;;;11.14;89.69;100964.09;4930964;29;20068;-85
2023/05/02 02:39:47;;;;;;;17.55;13.45;;;;;;;11.12;90.07;100958.88;4914094;29;20063;-85
2023/05/02 02:42:25;;;;;;;18.27;12.43;;;;;;;11.12;90.96;100969.38;4911846;29;20094;-85
2023/05/02 02:45:33;;;;;;;18.52;12.13;;;;;;;11.12;91.43;100966.75;4915024;29;20123;-86
2023/05/02 02:48:11;;;;;;;19.80;12.45;;;;;;;11.13;90.99;100975.47;4934022;29;20055;-86
2023/05/02 02:51:03;;;;;;;20.48;12.98;;;;;;;11.12;91.67;100978.94;4916089;29;20048;-86
2023/05/02 02:54:04;;;;;;;15.95;12.30;;;;;;;11.11;92.06;100982.44;4914455;29;20064;-85
2023/05/02 02:56:45;;;;;;;19.15;12.32;;;;;;;11.08;92.54;100985.94;4901367;29;20135;-86
2023/05/02 02:59:51;;;;;;;17.30;13.70;;;;;;;11.08;93.55;100984.22;4911682;29;20051;-86
2023/05/02 03:02:24;;;;;;;19.73;13.55;;;;;;;11.05;93.74;100994.69;4870356;29;20127;-84
2023/05/02 03:04:53;;;;;;;22.57;14.00;;;;;;;11.04;94.29;100992.09;4927758;29;20060;-86
2023/05/02 03:07:20;;;;;;;17.45;12.38;;;;;;;11.05;93.90;101001.69;4898367;29;20115;-86
2023/05/02 03:09:48;;;;;;;17.95;13.32;;;;;;;11.06;94.75;100992.97;4912015;29;20071;-85
2023/05/02 03:12:18;;;;;;;23.95;13.35;;;;;;;11.05;94.61;100997.31;4915822;29;20048;-86
2023/05/02 03:14:48;;;;;;;17.25;13.50;;;;;;;11.05;95.96;101001.69;4914861;29;20048;-86
2023/05/02 03:17:14;;;;;;;20.23;12.50;;;;;;;11.05;95.40;101004.31;4929232;29;22469;-86
2023/05/02 03:19:41;;;;;;;17.15;12.40;;;;;;;11.05;95.39;101009.56;4911753;29;20076;-85
2023/05/02 03:22:08;;;;;;;17.67;12.02;;;;;;;11.03;95.44;101008.69;4894056;29;20075;-86
2023/05/02 03:24:35;;;;;;;16.70;12.15;;;;;;;11.05;95.17;101009.56;4895739;29;20059;-85
2023/05/02 03:27:03;;;;;;;17.98;12.32;;;;;;;11.02;95.52;101009.59;4902468;29;20040;-85
2023/05/02 03:29:30;;;;;;;17.13;11.75;;;;;;;11.03;95.54;101014.81;4913894;29;20256;-85
2023/05/02 03:31:57;;;;;;;19.85;11.48;;;;;;;11.05;95.79;101012.19;4901092;29;20055;-84
2023/05/02 03:34:24;;;;;;;17.60;11.68;;;;;;;11.03;95.87;101017.44;4895451;29;20052;-84
2023/05/02 03:36:52;;;;;;;16.70;11.80;;;;;;;11.01;96.09;101008.69;4908635;29;20051;-85
2023/05/02 03:39:26;;;;;;;20.63;12.20;;;;;;;11.03;96.16;101016.53;4904506;29;20048;-84
2023/05/02 03:41:53;;;;;;;16.63;11.95;;;;;;;11.02;96.32;101017.44;4915007;29;20056;-84
2023/05/02 03:44:19;;;;;;;19.20;12.68;;;;;;;11.04;97.47;101021.81;4928945;29;20052;-85
2023/05/02 03:46:47;;;;;;;18.17;11.15;;;;;;;11.00;97.96;101021.81;4917748;29;20048;-85
2023/05/02 03:49:13;;;;;;;18.75;13.15;;;;;;;10.97;98.38;101024.47;4899145;29;20055;-85
2023/05/02 03:51:40;;;;;;;19.75;13.13;;;;;;;10.96;98.63;101020.94;4931101;29;20111;-85
2023/05/02 03:54:08;;;;;;;17.00;11.40;;;;;;;10.91;99.28;101031.47;4913308;29;20099;-84
2023/05/02 03:56:35;;;;;;;15.68;11.85;;;;;;;10.88;100.00;101020.97;4897437;29;20044;-85
2023/05/02 03:59:02;;;;;;;18.25;11.70;;;;;;;10.88;100.00;101028.84;4897282;29;20054;-86
2023/05/02 04:01:29;;;;;;;16.48;11.73;;;;;;;10.88;100.00;101030.59;4914603;29;20058;-85
2023/05/02 04:03:57;;;;;;;17.60;12.20;;;;;;;10.89;100.00;101042.81;4927248;29;20603;-84
2023/05/02 04:06:23;;;;;;;18.55;12.63;;;;;;;10.87;100.00;101034.09;4908850;29;20052;-84
2023/05/02 04:08:50;;;;;;;21.85;14.57;;;;;;;10.86;100.00;101041.09;4906795;29;20052;-85
2023/05/02 04:11:18;;;;;;;19.58;11.93;;;;;;;10.89;100.00;101043.69;4927755;29;20052;-84
2023/05/02 04:13:45;;;;;;;22.02;14.18;;;;;;;10.92;100.00;101053.28;4927708;29;20386;-83
2023/05/02 04:16:11;;;;;;;21.52;12.23;;;;;;;10.90;100.00;101058.53;4912084;29;20052;-84
2023/05/02 04:18:38;;;;;;;20.77;12.45;;;;;;;10.87;100.00;101055.03;4907430;29;20067;-86
2023/05/02 04:21:09;;;;;;;21.40;12.00;;;;;;;10.79;100.00;101062.91;4915226;29;20068;-85
2023/05/02 04:23:37;;;;;;;18.58;12.43;;;;;;;10.74;100.00;101062.94;4897643;29;20162;-85
2023/05/02 04:26:07;;;;;;;24.13;14.23;;;;;;;10.69;100.00;101067.34;4921782;29;20045;-85
2023/05/02 04:28:35;;;;;;;18.65;11.80;;;;;;;10.62;100.00;101076.06;4909162;29;20044;-85
2023/05/02 04:31:05;;;;;;;27.15;13.70;;;;;;;10.55;100.00;101074.34;4917940;29;20063;-85
2023/05/02 04:33:36;;;;;;;18.33;12.18;;;;;;;10.51;100.00;101065.63;4918950;29;20056;-85
2023/05/02 04:36:05;;;;;;;22.33;14.02;;;;;;;10.48;100.00;101078.72;4906737;29;20044;-84
2023/05/02 04:38:31;;;;;;;22.75;13.95;;;;;;;10.48;100.00;101088.31;4916708;29;20044;-84
2023/05/02 04:41:14;;;;;;;23.63;14.05;;;;;;;10.49;100.00;101085.69;4902220;29;20225;-85
2023/05/02 04:43:41;;;;;;;23.38;13.45;;;;;;;10.49;100.00;101090.06;4931591;29;20499;-84
2023/05/02 04:46:08;;;;;;;19.15;12.07;;;;;;;10.50;100.00;101089.19;4919139;29;20052;-84
2023/05/02 04:48:34;;;;;;;23.50;11.95;;;;;;;10.50;100.00;101095.28;4913179;29;20056;-85
2023/05/02 04:51:02;;;;;;;24.35;15.00;;;;;;;10.48;100.00;101106.63;4907966;29;20927;-85
2023/05/02 04:53:41;;;;;;;21.77;13.45;;;;;;;10.47;100.00;101102.25;4927252;29;20078;-85
2023/05/02 04:56:10;;;;;;;19.33;12.20;;;;;;;10.40;100.00;101117.09;4924673;29;20100;-87
2023/05/02 04:58:37;;;;;;;22.70;13.45;;;;;;;10.41;100.00;101126.72;4919431;29;20594;-85
2023/05/02 05:01:07;;;;;;;24.95;12.35;;;;;;;10.39;100.00;101134.56;4927198;29;20332;-85
2023/05/02 05:03:39;;;;;;;16.92;10.65;;;;;;;10.37;100.00;101127.59;4907662;29;20051;-84
2023/05/02 05:06:06;;;;;;;16.27;10.82;;;;;;;10.33;100.00;101134.53;4917680;29;20043;-86
2023/05/02 05:08:35;;;;;;;16.17;10.38;;;;;;;10.33;100.00;101141.53;4912186;29;20044;-86
2023/05/02 05:11:05;;;;;;;13.63;8.93;;;;;;;10.25;100.00;101146.75;4925063;29;20871;-84
2023/05/02 05:13:34;;;;;;;16.13;8.43;;;;;;;10.14;100.00;101158.94;4912758;29;20075;-85
2023/05/02 05:16:04;;;;;;;11.85;8.02;;;;;;;10.06;100.00;101158.94;4912754;29;20048;-85
2023/05/02 05:21:51;;;;;;;5.18;4.25;;;;;;;9.81;100.00;101174.56;4928514;29;20476;-87
2023/05/02 05:27:15;;;;;;;2.25;1.95;;;;;;;9.52;100.00;101192.78;4922667;29;20052;-86
2023/05/02 05:29:54;;;;;;;3.88;2.17;;;;;;;9.42;100.00;101202.31;4925016;29;20418;-87
2023/05/02 05:32:28;;;;;;;3.55;2.03;;;;;;;9.44;100.00;101201.47;4923519;29;20044;-85
2023/05/02 05:34:55;;;;;;;3.65;2.03;;;;;;;9.44;100.00;101214.53;4905975;29;20044;-86
2023/05/02 05:37:38;;;;;;;2.13;1.55;;;;;;;9.42;100.00;101216.25;4925581;29;20032;-87
2023/05/02 05:40:20;;;;;;;2.38;1.77;;;;;;;9.44;100.00;101227.59;4907453;29;20048;-86
2023/05/02 05:42:51;;;;;;;5.22;1.77;;;;;;;9.37;100.00;101231.06;4905186;29;20134;-86
2023/05/02 05:45:23;;;;;;;8.38;2.90;;;;;;;9.32;100.00;101238.00;4918354;29;20052;-88
2023/05/02 05:47:50;;;;;;;1.98;1.23;;;;;;;9.27;100.00;101250.16;4899224;29;20051;-88
2023/05/02 05:50:17;;;;;;;3.35;1.70;;;;;;;9.26;100.00;101244.03;4920102;29;20056;-85
2023/05/02 05:52:51;;;;;;;11.15;2.50;;;;;;;9.23;100.00;101256.19;4919850;29;20048;-85
2023/05/02 05:55:27;;;;;;;3.47;2.22;;;;;;;9.23;100.00;101261.44;4920177;29;20071;-85
2023/05/02 05:57:55;;;;;;;4.43;1.80;;;;;;;9.29;100.00;101271.91;4922922;29;20103;-85
2023/05/02 06:00:22;;;;;;;7.93;2.85;;;;;;;9.37;100.00;101278.09;4921423;29;20051;-84
2023/05/02 06:02:53;;;;;;;5.68;2.28;;;;;;;9.42;100.00;101281.56;4902757;29;20116;-86
2023/05/02 06:05:22;;;;;;;8.80;2.97;;;;;;;9.41;100.00;101278.97;4917087;29;20043;-83
2023/05/02 06:07:51;;;;;;;6.13;2.40;;;;;;;9.44;100.00;101295.53;4921007;29;20059;-84
2023/05/02 06:10:18;;;;;;;6.68;2.45;;;;;;;9.51;100.00;101291.22;4924067;29;20056;-84
2023/05/02 06:12:50;;;;;;;2.63;2.42;;;;;;;9.54;100.00;101304.31;4923892;29;20059;-85
2023/05/02 06:15:17;;;;;;;5.28;1.88;;;;;;;9.60;100.00;101300.84;4937830;29;20040;-83
2023/05/02 06:17:44;;;;;;;6.10;2.13;;;;;;;9.62;100.00;101313.94;4909417;29;20052;-86
2023/05/02 06:20:11;;;;;;;8.48;2.35;;;;;;;9.59;100.00;101323.53;4935380;29;20055;-83
2023/05/02 06:22:39;;;;;;;7.68;2.65;;;;;;;9.56;100.00;101330.47;4902570;29;20079;-85
2023/05/02 06:25:09;;;;;;;5.40;2.40;;;;;;;9.56;99.39;101328.72;4902320;29;20056;-86
2023/05/02 06:27:36;;;;;;;8.23;2.80;;;;;;;9.57;99.81;101332.22;4890535;29;20049;-87
2023/05/02 06:30:07;;;;;;;12.00;3.20;;;;;;;9.53;98.23;101333.03;4909607;29;20052;-85
2023/05/02 06:32:36;;;;;;;6.35;3.10;;;;;;;9.50;97.21;101340.88;4893199;29;20056;-86
2023/05/02 06:35:09;;;;;;;9.55;2.75;;;;;;;9.49;96.15;101346.94;4879474;29;20525;-85
2023/05/02 06:37:38;;;;;;;13.23;3.25;;;;;;;9.50;95.25;101349.56;4897085;29;20791;-85
2023/05/02 06:40:06;;;;;;;4.82;2.20;;;;;;;9.56;95.64;101346.16;4897801;29;20084;-85
2023/05/02 06:42:34;;;;;;;9.43;2.83;;;;;;;9.66;94.72;101354.91;4887159;29;20504;-84
2023/05/02 06:45:02;;;;;;;6.45;3.15;;;;;;;9.73;92.88;101359.31;4900877;29;20048;-85
2023/05/02 06:47:32;;;;;;;13.20;3.63;;;;;;;9.76;91.56;101368.06;4879837;29;20563;-85
2023/05/02 06:50:01;;;;;;;16.23;3.53;;;;;;;9.77;89.68;101379.38;4880399;29;20469;-86
2023/05/02 06:52:28;;;;;;;14.00;2.88;;;;;;;9.81;89.63;101377.66;4894784;29;20048;-86
2023/05/02 06:54:55;;;;;;;10.05;3.03;;;;;;;9.77;88.67;101385.47;4894494;29;20342;-85
2023/05/02 06:57:24;;;;;;;10.45;2.85;;;;;;;9.81;87.56;101378.53;4896662;29;20048;-86
2023/05/02 06:59:50;;;;;;;8.23;3.08;;;;;;;9.93;87.48;101385.56;4880144;29;20053;-85
2023/05/02 07:02:22;;;;;;;11.52;2.50;;;;;;;10.07;86.55;101388.25;4900796;29;20073;-84
2023/05/02 07:04:56;;;;;;;7.13;2.42;;;;;;;10.16;85.39;101384.81;4886883;29;20052;-85
2023/05/02 07:07:30;;;;;;;9.00;2.58;;;;;;;10.38;86.46;101393.69;4903109;29;20052;-84
2023/05/02 07:09:57;;;;;;;11.70;3.28;;;;;;;10.66;84.69;101396.38;4925703;29;20059;-85
2023/05/02 07:12:23;;;;;;;11.57;3.10;;;;;;;10.88;84.32;101397.28;4903993;29;20051;-85
2023/05/02 07:14:52;;;;;;;12.00;3.53;;;;;;;11.11;81.43;101402.56;4904362;29;20143;-85
2023/05/02 07:17:19;;;;;;;9.40;3.65;;;;;;;11.19;79.83;101408.69;4889444;29;20043;-85
2023/05/02 07:19:46;;;;;;;7.28;2.83;;;;;;;11.03;77.59;101413.03;4889069;29;20051;-86
2023/05/02 07:22:17;;;;;;;10.07;3.10;;;;;;;10.96;78.22;101420.88;4901431;29;20602;-85
2023/05/02 07:24:47;;;;;;;12.70;3.20;;;;;;;10.93;79.01;101433.09;4923560;29;20048;-85
2023/05/02 07:27:15;;;;;;;12.98;3.15;;;;;;;10.96;78.13;101437.47;4923581;29;20036;-85
2023/05/02 07:29:54;;;;;;;9.77;2.90;;;;;;;11.06;77.89;101428.75;4918757;29;20108;-85
2023/05/02 07:32:25;;;;;;;7.18;2.53;;;;;;;11.18;76.86;101433.13;4921825;29;20055;-85
2023/05/02 07:34:54;;;;;;;11.68;3.33;;;;;;;11.38;76.79;101434.88;4917271;29;20100;-84
2023/05/02 07:37:21;;;;;;;8.32;2.75;;;;;;;11.52;75.71;101442.75;4935481;29;20044;-83
2023/05/02 07:39:49;;;;;;;9.38;3.25;;;;;;;11.54;74.62;101444.50;4904256;29;20064;-84
2023/05/02 07:42:16;;;;;;;10.73;3.15;;;;;;;11.43;74.88;101448.88;4919220;29;20048;-84
2023/05/02 07:44:45;;;;;;;10.63;4.15;;;;;;;11.36;75.75;101448.00;4918053;29;20032;-85
2023/05/02 07:47:14;;;;;;;7.68;2.42;;;;;;;11.31;75.14;101456.75;4914409;29;20132;-85
2023/05/02 07:49:40;;;;;;;21.10;3.95;;;;;;;11.14;74.97;101468.06;4912369;29;20143;-83
2023/05/02 07:52:07;;;;;;;11.13;3.67;;;;;;;10.87;74.14;101469.78;4914051;29;20079;-83
2023/05/02 07:54:34;;;;;;;11.95;3.38;;;;;;;10.62;74.52;101463.56;4911908;29;20052;-86
2023/05/02 07:57:04;;;;;;;7.57;3.30;;;;;;;10.48;75.19;101479.22;4911388;29;20048;-83
2023/05/02 07:59:31;;;;;;;4.32;2.60;;;;;;;10.45;75.87;101473.94;4912502;29;20055;-83
2023/05/02 08:01:57;;;;;;;8.73;3.05;;;;;;;10.56;75.80;101469.66;4913440;29;20072;-84
2023/05/02 08:04:24;;;;;;;5.93;2.50;;;;;;;10.55;74.97;101477.50;4912996;29;20048;-84
2023/05/02 08:06:50;;;;;;;6.60;3.33;;;;;;;10.59;75.30;101480.13;4913735;29;20411;-84
2023/05/02 08:09:17;;;;;;;5.97;2.50;;;;;;;10.76;73.72;101476.72;4929413;29;20072;-84
2023/05/02 08:11:44;;;;;;;5.78;2.50;;;;;;;11.00;73.23;101477.66;4930895;29;20044;-86
2023/05/02 08:14:10;;;;;;;9.25;3.15;;;;;;;11.11;71.68;101483.78;4931564;29;20418;-84
2023/05/02 08:16:37;;;;;;;8.45;2.53;;;;;;;11.09;70.66;101490.75;4910364;29;20689;-84
2023/05/02 08:19:03;;;;;;;5.50;1.88;;;;;;;11.11;70.36;101498.63;4911906;29;20506;-84
2023/05/02 08:21:31;;;;;;;10.35;2.88;;;;;;;11.25;69.73;101503.03;4896626;29;20539;-85
2023/05/02 08:23:58;;;;;;;9.27;2.42;;;;;;;11.57;68.90;101502.19;4913491;29;20135;-83
2023/05/02 08:26:25;;;;;;;5.82;2.78;;;;;;;11.94;67.08;101503.06;4899835;29;20079;-84
2023/05/02 08:28:56;;;;;;;6.38;2.17;;;;;;;12.08;66.91;101504.84;4915397;29;20080;-84
2023/05/02 08:31:23;;;;;;;3.78;2.35;;;;;;;12.16;67.32;101512.72;4898557;29;20048;-84
2023/05/02 08:33:50;;;;;;;8.85;2.15;;;;;;;11.93;66.53;101520.56;4896605;29;20044;-82
2023/05/02 08:36:19;;;;;;;4.63;1.90;;;;;;;11.65;66.11;101522.31;4912174;29;20092;-84
2023/05/02 08:38:46;;;;;;;8.60;2.38;;;;;;;11.39;66.18;101523.16;4928764;29;20052;-84
2023/05/02 08:41:30;;;;;;;6.05;2.03;;;;;;;11.23;67.21;101528.34;4912207;29;20052;-83
2023/05/02 08:43:57;;;;;;;5.68;1.50;;;;;;;11.25;67.50;101528.34;4924152;29;20052;-84
2023/05/02 08:46:24;;;;;;;5.28;1.88;;;;;;;11.27;66.79;101529.25;4913644;29;20045;-82
2023/05/02 08:48:53;;;;;;;8.95;3.30;;;;;;;11.28;66.71;101543.22;4896160;29;20508;-84
2023/05/02 08:51:27;;;;;;;4.70;2.20;;;;;;;11.16;66.64;101542.34;4912989;29;20052;-84
2023/05/02 08:53:54;;;;;;;8.40;2.17;;;;;;;10.95;67.51;101558.88;4908528;29;20048;-82
2023/05/02 08:56:21;;;;;;;7.47;2.22;;;;;;;10.93;68.74;101560.59;4902965;29;20057;-83
2023/05/02 08:58:47;;;;;;;5.82;2.17;;;;;;;10.87;67.79;101563.16;4893487;29;20060;-84
2023/05/02 09:01:20;;;;;;;7.65;2.75;;;;;;;10.69;67.96;101575.31;4909281;29;20601;-83
2023/05/02 09:03:48;;;;;;;7.60;2.93;;;;;;;10.50;68.77;101576.94;4894605;29;20063;-84
2023/05/02 09:06:20;;;;;;;9.02;2.92;;;;;;;10.49;68.63;101584.81;4927578;29;20060;-83
2023/05/02 09:08:52;;;;;;;8.07;2.60;;;;;;;10.51;68.29;101589.19;4907921;29;20052;-85
2023/05/02 09:11:20;;;;;;;8.82;2.50;;;;;;;10.51;68.08;101590.94;4893812;29;20056;-87
2023/05/02 09:13:51;;;;;;;8.73;2.45;;;;;;;10.47;68.17;101597.00;4891994;29;20475;-86
2023/05/02 09:16:22;;;;;;;10.07;2.42;;;;;;;10.46;68.00;101600.50;4910839;29;20058;-85
2023/05/02 09:18:52;;;;;;;5.43;2.03;;;;;;;10.53;67.11;101597.03;4896972;29;20084;-85
2023/05/02 09:21:40;;;;;;;7.57;2.65;;;;;;;10.55;67.24;101604.03;4925142;29;20068;-85
2023/05/02 09:24:18;;;;;;;4.57;1.85;;;;;;;10.59;67.77;101613.66;4911398;29;20052;-85
2023/05/02 09:26:59;;;;;;;5.60;2.38;;;;;;;10.72;67.68;101611.13;4926727;29;20059;-86
2023/05/02 09:29:29;;;;;;;7.05;2.17;;;;;;;10.93;66.48;101608.59;4910223;29;20048;-83
2023/05/02 09:31:56;;;;;;;8.20;2.53;;;;;;;11.03;65.52;101608.66;4923956;29;20052;-83
2023/05/02 09:34:23;;;;;;;10.27;2.65;;;;;;;11.03;65.45;101620.03;4910304;29;20048;-84
2023/05/02 09:36:52;;;;;;;4.88;2.15;;;;;;;10.96;65.58;101614.75;4912168;29;20052;-84
2023/05/02 09:39:28;;;;;;;8.98;2.30;;;;;;;10.97;66.11;101624.38;4924259;29;20147;-84
2023/05/02 09:41:55;;;;;;;8.93;2.05;;;;;;;11.11;65.54;101627.03;4907511;29;20063;-84
2023/05/02 09:44:36;;;;;;;4.60;1.63;;;;;;;11.31;65.12;101625.38;4910095;29;20052;-84
2023/05/02 09:47:05;;;;;;;9.05;3.03;;;;;;;11.48;64.55;101625.41;4908017;29;20052;-84
2023/05/02 09:49:44;;;;;;;5.38;1.98;;;;;;;11.71;61.78;101614.13;4894539;29;20055;-85
2023/05/02 09:52:13;;;;;;;7.32;1.48;;;;;;;11.86;61.75;101623.75;4917699;29;20048;-85
2023/05/02 09:54:43;;;;;;;3.97;1.98;;;;;;;12.19;61.59;101627.28;4928442;29;20144;-84
2023/05/02 09:57:12;;;;;;;7.13;2.00;;;;;;;12.28;59.48;101624.69;4926648;29;20048;-84
2023/05/02 09:59:53;;;;;;;5.50;1.88;;;;;;;12.42;58.98;101635.16;4911257;29;20083;-85
2023/05/02 10:02:22;;;;;;;7.47;2.30;;;;;;;12.65;56.80;101639.53;4914667;29;20078;-83
2023/05/02 10:04:50;;;;;;;8.40;1.70;;;;;;;12.43;57.05;101644.81;4928737;29;20103;-84
2023/05/02 10:07:17;;;;;;;9.80;3.05;;;;;;;12.36;56.49;101643.94;4926906;29;20052;-85
2023/05/02 10:09:45;;;;;;;5.55;2.75;;;;;;;12.24;56.74;101647.44;4912001;29;20059;-84
2023/05/02 10:12:17;;;;;;;2.42;1.60;;;;;;;12.11;55.78;101653.56;4910694;29;20055;-84
2023/05/02 10:14:52;;;;;;;4.10;2.05;;;;;;;11.82;55.92;101651.72;4926248;29;20496;-84
2023/05/02 10:17:28;;;;;;;2.85;2.55;;;;;;;11.82;56.62;101661.34;4909167;29;20048;-82
2023/05/02 10:20:09;;;;;;;6.82;2.28;;;;;;;11.77;55.67;101652.59;4895662;29;20563;-83
2023/05/02 10:22:37;;;;;;;5.60;2.03;;;;;;;11.82;56.22;101667.47;4896375;29;20056;-84
2023/05/02 10:25:05;;;;;;;9.65;2.08;;;;;;;11.87;55.58;101662.25;4912418;29;20177;-86
2023/05/02 10:27:32;;;;;;;7.78;2.63;;;;;;;12.00;55.50;101663.16;4893993;29;20155;-86
2023/05/02 10:30:05;;;;;;;8.07;2.05;;;;;;;12.12;54.90;101665.78;4899011;29;20064;-84
2023/05/02 10:32:33;;;;;;;5.20;1.95;;;;;;;12.20;54.61;101665.81;4894728;29;20647;-85
2023/05/02 10:35:11;;;;;;;8.40;2.70;;;;;;;12.20;53.80;101666.69;4910485;29;20067;-85
2023/05/02 10:37:40;;;;;;;4.35;2.05;;;;;;;12.15;53.06;101672.78;4884687;29;20138;-85
2023/05/02 10:40:12;;;;;;;5.15;2.38;;;;;;;11.94;53.85;101663.97;4894566;29;20062;-87
2023/05/02 10:42:44;;;;;;;7.30;2.55;;;;;;;12.03;54.06;101679.81;4929615;29;20076;-85
2023/05/02 10:45:14;;;;;;;4.85;2.50;;;;;;;12.09;54.40;101678.94;4884218;29;20048;-85
2023/05/02 10:47:41;;;;;;;7.60;3.00;;;;;;;12.28;53.28;101666.69;4913053;29;20032;-85
2023/05/02 10:50:10;;;;;;;7.40;2.67;;;;;;;12.40;53.47;101674.56;4917688;29;20070;-84
2023/05/02 10:52:39;;;;;;;11.77;3.40;;;;;;;12.46;52.90;101684.19;4914077;29;20084;-85
2023/05/02 10:55:23;;;;;;;4.53;2.88;;;;;;;12.53;52.12;101675.44;4924665;29;20416;-87
2023/05/02 10:58:08;;;;;;;;;;;;;;;12.67;51.05;101680.69;4929890;29;20771;-84
2023/05/02 11:00:35;;;;;;;6.70;2.53;;;;;;;12.81;49.51;101691.16;4919613;29;19973;-83
2023/05/02 11:03:02;;;;;;;7.47;3.00;;;;;;;12.87;49.64;101682.41;4913566;29;20067;-83
2023/05/02 11:05:35;;;;;;;5.43;2.90;;;;;;;12.95;48.58;101682.41;4930329;29;20435;-84
2023/05/02 11:08:20;;;;;;;5.13;3.13;;;;;;;13.04;48.06;101685.00;4915241;29;20135;-84
2023/05/02 11:10:47;;;;;;;6.88;2.92;;;;;;;13.29;47.97;101691.03;4928851;29;20427;-85
2023/05/02 11:13:13;;;;;;;6.07;3.03;;;;;;;13.75;47.13;101687.34;4913573;29;20054;-85
2023/05/02 11:15:39;;;;;;;7.28;2.60;;;;;;;14.34;45.25;101679.94;4931112;29;20139;-85
2023/05/02 11:18:11;;;;;;;8.93;2.95;;;;;;;14.85;43.94;101682.13;4912270;29;20059;-84
2023/05/02 11:20:41;;;;;;;9.25;3.03;;;;;;;14.81;43.42;101687.44;4926943;29;20096;-85
2023/05/02 11:23:13;;;;;;;7.68;2.92;;;;;;;14.75;42.96;101684.91;4898760;29;20063;-84
2023/05/02 11:25:47;;;;;;;6.18;2.90;;;;;;;14.44;43.85;101693.91;4913717;29;20052;-85
2023/05/02 11:28:29;;;;;;;;;;;;;;;14.19;44.00;101683.56;4911484;29;20048;-84
2023/05/02 11:30:55;;;;;;;9.23;3.78;;;;;;;14.36;43.69;101691.31;4929479;29;20406;-85
2023/05/02 11:33:22;;;;;;;4.10;2.42;;;;;;;14.17;43.24;101693.25;4913282;29;20496;-84
2023/05/02 11:35:49;;;;;;;5.22;2.78;;;;;;;13.94;43.76;101690.75;4897799;29;20055;-85
2023/05/02 11:38:18;;;;;;;10.10;3.47;;;;;;;13.93;44.42;101685.50;4896825;29;20053;-85
2023/05/02 11:40:57;;;;;;;4.53;2.38;;;;;;;14.15;43.94;101694.16;4895948;29;20131;-83
2023/05/02 11:43:26;;;;;;;4.75;2.78;;;;;;;14.23;42.97;101697.59;4911263;29;20044;-84